sensor_id;sensor_type;location;lat;lon;timestamp;pressure;altitude;pressure_sealevel;temperature;humidity
26487;BME280;14425;56.136;40.360;2023-01-27T00:00:31;57093.69;;;-145.77;100.00
26487;BME280;14425;56.136;40.360;2023-01-27T00:02:56;57093.69;;;-145.77;100.00
26487;BME280;14425;56.136;40.360;2023-01-27T00:05:22;57093.69;;;-145.77;100.00
26487;BME280;14425;56.136;40.360;2023-01-27T00:07:48;57093.69;;;-145.77;100.00
26487;BME280;14425;56.136;40.360;2023-01-27T00:10:16;57093.69;;;-145.77;100.00
26487;BME280;14425;56.136;40.360;2023-01-27T00:12:43;57093.69;;;-145.77;100.00
26487;BME280;14425;56.136;40.360;2023-01-27T00:15:28;57093.69;;;-145.77;100.00
26487;BME280;14425;56.136;40.360;2023-01-27T00:17:53;57093.69;;;-145.77;100.00
26487;BME280;14425;56.136;40.360;2023-01-27T00:20:19;57093.69;;;-145.77;100.00
26487;BME280;14425;56.136;40.360;2023-01-27T00:23:04;57093.69;;;-145.77;100.00
26487;BME280;14425;56.136;40.360;2023-01-27T00:25:48;57093.69;;;-145.77;100.00
26487;BME280;14425;56.136;40.360;2023-01-27T00:28:17;57093.69;;;-145.77;100.00
26487;BME280;14425;56.136;40.360;2023-01-27T00:30:50;57093.69;;;-145.77;100.00
26487;BME280;14425;56.136;40.360;2023-01-27T00:33:16;57093.69;;;-145.77;100.00
26487;BME280;14425;56.136;40.360;2023-01-27T00:36:04;57093.69;;;-145.77;100.00
26487;BME280;14425;56.136;40.360;2023-01-27T00:38:33;57093.69;;;-145.77;100.00
26487;BME280;14425;56.136;40.360;2023-01-27T00:40:59;57093.69;;;-145.77;100.00
26487;BME280;14425;56.136;40.360;2023-01-27T00:43:47;57093.69;;;-145.77;100.00
26487;BME280;14425;56.136;40.360;2023-01-27T00:46:14;57093.69;;;-145.77;100.00
26487;BME280;14425;56.136;40.360;2023-01-27T00:48:40;57093.69;;;-145.77;100.00
26487;BME280;14425;56.136;40.360;2023-01-27T00:51:05;57093.69;;;-145.77;100.00
26487;BME280;14425;56.136;40.360;2023-01-27T00:53:31;57093.69;;;-145.77;100.00
26487;BME280;14425;56.136;40.360;2023-01-27T00:55:57;57093.69;;;-145.77;100.00
26487;BME280;14425;56.136;40.360;2023-01-27T00:58:26;57093.69;;;-145.77;100.00
26487;BME280;14425;56.136;40.360;2023-01-27T01:00:56;57093.69;;;-145.77;100.00
26487;BME280;14425;56.136;40.360;2023-01-27T01:03:23;57093.69;;;-145.77;100.00
26487;BME280;14425;56.136;40.360;2023-01-27T01:05:49;57093.69;;;-145.77;100.00
26487;BME280;14425;56.136;40.360;2023-01-27T01:08:15;57093.69;;;-145.77;100.00
26487;BME280;14425;56.136;40.360;2023-01-27T01:10:40;57093.69;;;-145.77;100.00
26487;BME280;14425;56.136;40.360;2023-01-27T01:13:06;57093.69;;;-145.77;100.00
26487;BME280;14425;56.136;40.360;2023-01-27T01:15:39;57093.69;;;-145.77;100.00
26487;BME280;14425;56.136;40.360;2023-01-27T01:18:07;57093.69;;;-145.77;100.00
26487;BME280;14425;56.136;40.360;2023-01-27T01:20:44;57093.69;;;-145.77;100.00
26487;BME280;14425;56.136;40.360;2023-01-27T01:23:11;57093.69;;;-145.77;100.00
26487;BME280;14425;56.136;40.360;2023-01-27T01:25:37;57093.69;;;-145.77;100.00
26487;BME280;14425;56.136;40.360;2023-01-27T01:28:06;57093.69;;;-145.77;100.00
26487;BME280;14425;56.136;40.360;2023-01-27T01:30:36;57093.69;;;-145.77;100.00
26487;BME280;14425;56.136;40.360;2023-01-27T01:33:02;57093.69;;;-145.77;100.00
26487;BME280;14425;56.136;40.360;2023-01-27T01:35:28;57093.69;;;-145.77;100.00
26487;BME280;14425;56.136;40.360;2023-01-27T01:37:53;57093.69;;;-145.77;100.00
26487;BME280;14425;56.136;40.360;2023-01-27T01:40:20;57093.69;;;-145.77;100.00
26487;BME280;14425;56.136;40.360;2023-01-27T01:48:02;57093.69;;;-145.77;100.00
26487;BME280;14425;56.136;40.360;2023-01-27T01:50:31;57093.69;;;-145.77;100.00
26487;BME280;14425;56.136;40.360;2023-01-27T01:52:59;57093.69;;;-145.77;100.00
26487;BME280;14425;56.136;40.360;2023-01-27T01:55:25;57093.69;;;-145.77;100.00
26487;BME280;14425;56.136;40.360;2023-01-27T01:57:51;57093.69;;;-145.77;100.00
26487;BME280;14425;56.136;40.360;2023-01-27T02:00:17;57093.69;;;-145.77;100.00
26487;BME280;14425;56.136;40.360;2023-01-27T02:02:43;57093.69;;;-145.77;100.00
26487;BME280;14425;56.136;40.360;2023-01-27T02:05:16;57093.69;;;-145.77;100.00
26487;BME280;14425;56.136;40.360;2023-01-27T02:08:16;57093.69;;;-145.77;100.00
26487;BME280;14425;56.136;40.360;2023-01-27T02:10:45;57093.69;;;-145.77;100.00
26487;BME280;14425;56.136;40.360;2023-01-27T02:13:11;57093.69;;;-145.77;100.00
26487;BME280;14425;56.136;40.360;2023-01-27T02:15:37;57093.69;;;-145.77;100.00
26487;BME280;14425;56.136;40.360;2023-01-27T02:18:03;57093.69;;;-145.77;100.00
26487;BME280;14425;56.136;40.360;2023-01-27T02:20:38;57093.69;;;-145.77;100.00
26487;BME280;14425;56.136;40.360;2023-01-27T02:25:38;57093.69;;;-145.77;100.00
26487;BME280;14425;56.136;40.360;2023-01-27T02:28:06;57093.69;;;-145.77;100.00
26487;BME280;14425;56.136;40.360;2023-01-27T02:30:32;57093.69;;;-145.77;100.00
26487;BME280;14425;56.136;40.360;2023-01-27T02:32:57;57093.69;;;-145.77;100.00
26487;BME280;14425;56.136;40.360;2023-01-27T02:35:33;57093.69;;;-145.77;100.00
26487;BME280;14425;56.136;40.360;2023-01-27T02:38:01;57093.69;;;-145.77;100.00
26487;BME280;14425;56.136;40.360;2023-01-27T02:40:28;57093.69;;;-145.77;100.00
26487;BME280;14425;56.136;40.360;2023-01-27T02:42:55;57093.69;;;-145.77;100.00
26487;BME280;14425;56.136;40.360;2023-01-27T02:45:22;57093.69;;;-145.77;100.00
26487;BME280;14425;56.136;40.360;2023-01-27T02:47:47;57093.69;;;-145.77;100.00
26487;BME280;14425;56.136;40.360;2023-01-27T02:50:13;57093.69;;;-145.77;100.00
26487;BME280;14425;56.136;40.360;2023-01-27T02:52:38;57093.69;;;-145.77;100.00
26487;BME280;14425;56.136;40.360;2023-01-27T02:55:04;57093.69;;;-145.77;100.00
26487;BME280;14425;56.136;40.360;2023-01-27T02:57:29;57093.69;;;-145.77;100.00
26487;BME280;14425;56.136;40.360;2023-01-27T02:59:55;57093.69;;;-145.77;100.00
26487;BME280;14425;56.136;40.360;2023-01-27T03:02:20;57093.69;;;-145.77;100.00
26487;BME280;14425;56.136;40.360;2023-01-27T03:04:55;57093.69;;;-145.77;100.00
26487;BME280;14425;56.136;40.360;2023-01-27T03:07:21;57093.69;;;-145.77;100.00
26487;BME280;14425;56.136;40.360;2023-01-27T03:09:46;57093.69;;;-145.77;100.00
26487;BME280;14425;56.136;40.360;2023-01-27T03:12:12;57093.69;;;-145.77;100.00
26487;BME280;14425;56.136;40.360;2023-01-27T03:14:50;57093.69;;;-145.77;100.00
26487;BME280;14425;56.136;40.360;2023-01-27T03:17:35;57093.69;;;-145.77;100.00
26487;BME280;14425;56.136;40.360;2023-01-27T03:20:19;57093.69;;;-145.77;100.00
26487;BME280;14425;56.136;40.360;2023-01-27T03:22:46;57093.69;;;-145.77;100.00
26487;BME280;14425;56.136;40.360;2023-01-27T03:25:12;57093.69;;;-145.77;100.00
26487;BME280;14425;56.136;40.360;2023-01-27T03:27:39;57093.69;;;-145.77;100.00
26487;BME280;14425;56.136;40.360;2023-01-27T03:30:05;57093.69;;;-145.77;100.00
26487;BME280;14425;56.136;40.360;2023-01-27T03:32:31;57093.69;;;-145.77;100.00
26487;BME280;14425;56.136;40.360;2023-01-27T03:34:57;57093.69;;;-145.77;100.00
26487;BME280;14425;56.136;40.360;2023-01-27T03:37:27;57093.69;;;-145.77;100.00
26487;BME280;14425;56.136;40.360;2023-01-27T03:40:12;57093.69;;;-145.77;100.00
26487;BME280;14425;56.136;40.360;2023-01-27T03:42:57;57093.69;;;-145.77;100.00
26487;BME280;14425;56.136;40.360;2023-01-27T03:45:44;57093.69;;;-145.77;100.00
26487;BME280;14425;56.136;40.360;2023-01-27T03:48:30;57093.69;;;-145.77;100.00
26487;BME280;14425;56.136;40.360;2023-01-27T03:50:57;57093.69;;;-145.77;100.00
26487;BME280;14425;56.136;40.360;2023-01-27T03:53:23;57093.69;;;-145.77;100.00
26487;BME280;14425;56.136;40.360;2023-01-27T03:55:48;57093.69;;;-145.77;100.00
26487;BME280;14425;56.136;40.360;2023-01-27T03:58:21;57093.69;;;-145.77;100.00
26487;BME280;14425;56.136;40.360;2023-01-27T04:00:56;57093.69;;;-145.77;100.00
26487;BME280;14425;56.136;40.360;2023-01-27T04:03:23;57093.69;;;-145.77;100.00
26487;BME280;14425;56.136;40.360;2023-01-27T04:06:10;57093.69;;;-145.77;100.00
26487;BME280;14425;56.136;40.360;2023-01-27T04:08:55;57093.69;;;-145.77;100.00
26487;BME280;14425;56.136;40.360;2023-01-27T04:11:22;57093.69;;;-145.77;100.00
26487;BME280;14425;56.136;40.360;2023-01-27T04:14:07;57093.69;;;-145.77;100.00
26487;BME280;14425;56.136;40.360;2023-01-27T04:16:33;57093.69;;;-145.77;100.00
26487;BME280;14425;56.136;40.360;2023-01-27T04:19:02;57093.69;;;-145.77;100.00
26487;BME280;14425;56.136;40.360;2023-01-27T04:21:28;57093.69;;;-145.77;100.00
26487;BME280;14425;56.136;40.360;2023-01-27T04:23:54;57093.69;;;-145.77;100.00
26487;BME280;14425;56.136;40.360;2023-01-27T04:26:20;57093.69;;;-145.77;100.00
26487;BME280;14425;56.136;40.360;2023-01-27T04:28:46;57093.69;;;-145.77;100.00
26487;BME280;14425;56.136;40.360;2023-01-27T04:31:12;57093.69;;;-145.77;100.00
26487;BME280;14425;56.136;40.360;2023-01-27T04:33:38;57093.69;;;-145.77;100.00
26487;BME280;14425;56.136;40.360;2023-01-27T04:36:04;57093.69;;;-145.77;100.00
26487;BME280;14425;56.136;40.360;2023-01-27T04:38:29;57093.69;;;-145.77;100.00
26487;BME280;14425;56.136;40.360;2023-01-27T04:40:55;57093.69;;;-145.77;100.00
26487;BME280;14425;56.136;40.360;2023-01-27T04:43:20;57093.69;;;-145.77;100.00
26487;BME280;14425;56.136;40.360;2023-01-27T04:45:46;57093.69;;;-145.77;100.00
26487;BME280;14425;56.136;40.360;2023-01-27T04:48:11;57093.69;;;-145.77;100.00
26487;BME280;14425;56.136;40.360;2023-01-27T04:50:37;57093.69;;;-145.77;100.00
26487;BME280;14425;56.136;40.360;2023-01-27T04:53:02;57093.69;;;-145.77;100.00
26487;BME280;14425;56.136;40.360;2023-01-27T04:55:28;57093.69;;;-145.77;100.00
26487;BME280;14425;56.136;40.360;2023-01-27T04:57:53;57093.69;;;-145.77;100.00
26487;BME280;14425;56.136;40.360;2023-01-27T05:00:19;57093.69;;;-145.77;100.00
26487;BME280;14425;56.136;40.360;2023-01-27T05:02:44;57093.69;;;-145.77;100.00
26487;BME280;14425;56.136;40.360;2023-01-27T05:05:10;57093.69;;;-145.77;100.00
26487;BME280;14425;56.136;40.360;2023-01-27T05:07:37;57093.69;;;-145.77;100.00
26487;BME280;14425;56.136;40.360;2023-01-27T05:10:03;57093.69;;;-145.77;100.00
26487;BME280;14425;56.136;40.360;2023-01-27T05:12:28;57093.69;;;-145.77;100.00
26487;BME280;14425;56.136;40.360;2023-01-27T05:14:54;57093.69;;;-145.77;100.00
26487;BME280;14425;56.136;40.360;2023-01-27T05:17:19;57093.69;;;-145.77;100.00
26487;BME280;14425;56.136;40.360;2023-01-27T05:19:45;57093.69;;;-145.77;100.00
26487;BME280;14425;56.136;40.360;2023-01-27T05:22:10;57093.69;;;-145.77;100.00
26487;BME280;14425;56.136;40.360;2023-01-27T05:24:36;57093.69;;;-145.77;100.00
26487;BME280;14425;56.136;40.360;2023-01-27T05:27:05;57093.69;;;-145.77;100.00
26487;BME280;14425;56.136;40.360;2023-01-27T05:29:30;57093.69;;;-145.77;100.00
26487;BME280;14425;56.136;40.360;2023-01-27T05:31:56;57093.69;;;-145.77;100.00
26487;BME280;14425;56.136;40.360;2023-01-27T05:34:22;57093.69;;;-145.77;100.00
26487;BME280;14425;56.136;40.360;2023-01-27T05:36:47;57093.69;;;-145.77;100.00
26487;BME280;14425;56.136;40.360;2023-01-27T05:39:13;57093.69;;;-145.77;100.00
26487;BME280;14425;56.136;40.360;2023-01-27T05:41:39;57093.69;;;-145.77;100.00
26487;BME280;14425;56.136;40.360;2023-01-27T05:44:05;57093.69;;;-145.77;100.00
26487;BME280;14425;56.136;40.360;2023-01-27T05:46:31;57093.69;;;-145.77;100.00
26487;BME280;14425;56.136;40.360;2023-01-27T05:49:02;57093.69;;;-145.77;100.00
26487;BME280;14425;56.136;40.360;2023-01-27T05:51:39;57093.69;;;-145.77;100.00
26487;BME280;14425;56.136;40.360;2023-01-27T05:54:05;57093.69;;;-145.77;100.00
26487;BME280;14425;56.136;40.360;2023-01-27T05:56:32;57093.69;;;-145.77;100.00
26487;BME280;14425;56.136;40.360;2023-01-27T05:58:58;57093.69;;;-145.77;100.00
26487;BME280;14425;56.136;40.360;2023-01-27T06:01:29;57093.69;;;-145.77;100.00
26487;BME280;14425;56.136;40.360;2023-01-27T06:03:55;57093.69;;;-145.77;100.00
26487;BME280;14425;56.136;40.360;2023-01-27T06:06:22;57093.69;;;-145.77;100.00
26487;BME280;14425;56.136;40.360;2023-01-27T06:08:48;57093.69;;;-145.77;100.00
26487;BME280;14425;56.136;40.360;2023-01-27T06:11:15;57093.69;;;-145.77;100.00
26487;BME280;14425;56.136;40.360;2023-01-27T06:13:42;57093.69;;;-145.77;100.00
26487;BME280;14425;56.136;40.360;2023-01-27T06:16:09;57093.69;;;-145.77;100.00
26487;BME280;14425;56.136;40.360;2023-01-27T06:18:36;57093.69;;;-145.77;100.00
26487;BME280;14425;56.136;40.360;2023-01-27T06:21:06;57093.69;;;-145.77;100.00
26487;BME280;14425;56.136;40.360;2023-01-27T06:23:31;57093.69;;;-145.77;100.00
26487;BME280;14425;56.136;40.360;2023-01-27T06:26:02;57093.69;;;-145.77;100.00
26487;BME280;14425;56.136;40.360;2023-01-27T06:28:29;57093.69;;;-145.77;100.00
26487;BME280;14425;56.136;40.360;2023-01-27T06:30:55;57093.69;;;-145.77;100.00
26487;BME280;14425;56.136;40.360;2023-01-27T06:33:20;57093.69;;;-145.77;100.00
26487;BME280;14425;56.136;40.360;2023-01-27T06:35:46;57093.69;;;-145.77;100.00
26487;BME280;14425;56.136;40.360;2023-01-27T06:38:12;57093.69;;;-145.77;100.00
26487;BME280;14425;56.136;40.360;2023-01-27T06:40:40;57093.69;;;-145.77;100.00
26487;BME280;14425;56.136;40.360;2023-01-27T06:43:10;57093.69;;;-145.77;100.00
26487;BME280;14425;56.136;40.360;2023-01-27T06:45:37;57093.69;;;-145.77;100.00
26487;BME280;14425;56.136;40.360;2023-01-27T06:48:03;57093.69;;;-145.77;100.00
26487;BME280;14425;56.136;40.360;2023-01-27T06:50:28;57093.69;;;-145.77;100.00
26487;BME280;14425;56.136;40.360;2023-01-27T06:53:03;57093.69;;;-145.77;100.00
26487;BME280;14425;56.136;40.360;2023-01-27T06:55:29;57093.69;;;-145.77;100.00
26487;BME280;14425;56.136;40.360;2023-01-27T06:57:54;57093.69;;;-145.77;100.00
26487;BME280;14425;56.136;40.360;2023-01-27T07:00:20;57093.69;;;-145.77;100.00
26487;BME280;14425;56.136;40.360;2023-01-27T07:02:46;57093.69;;;-145.77;100.00
26487;BME280;14425;56.136;40.360;2023-01-27T07:05:12;57093.69;;;-145.77;100.00
26487;BME280;14425;56.136;40.360;2023-01-27T07:07:38;57093.69;;;-145.77;100.00
26487;BME280;14425;56.136;40.360;2023-01-27T07:10:04;57093.69;;;-145.77;100.00
26487;BME280;14425;56.136;40.360;2023-01-27T07:12:30;57093.69;;;-145.77;100.00
26487;BME280;14425;56.136;40.360;2023-01-27T07:14:56;57093.69;;;-145.77;100.00
26487;BME280;14425;56.136;40.360;2023-01-27T07:17:21;57093.69;;;-145.77;100.00
26487;BME280;14425;56.136;40.360;2023-01-27T07:19:47;57093.69;;;-145.77;100.00
26487;BME280;14425;56.136;40.360;2023-01-27T07:22:12;57093.69;;;-145.77;100.00
26487;BME280;14425;56.136;40.360;2023-01-27T07:24:38;57093.69;;;-145.77;100.00
26487;BME280;14425;56.136;40.360;2023-01-27T07:27:03;57093.69;;;-145.77;100.00
26487;BME280;14425;56.136;40.360;2023-01-27T07:29:29;57093.69;;;-145.77;100.00
26487;BME280;14425;56.136;40.360;2023-01-27T07:31:54;57093.69;;;-145.77;100.00
26487;BME280;14425;56.136;40.360;2023-01-27T07:34:20;57093.69;;;-145.77;100.00
26487;BME280;14425;56.136;40.360;2023-01-27T07:36:45;57093.69;;;-145.77;100.00
26487;BME280;14425;56.136;40.360;2023-01-27T07:39:11;57093.69;;;-145.77;100.00
26487;BME280;14425;56.136;40.360;2023-01-27T07:41:36;57093.69;;;-145.77;100.00
26487;BME280;14425;56.136;40.360;2023-01-27T07:44:01;57093.69;;;-145.77;100.00
26487;BME280;14425;56.136;40.360;2023-01-27T07:46:27;57093.69;;;-145.77;100.00
26487;BME280;14425;56.136;40.360;2023-01-27T07:48:52;57093.69;;;-145.77;100.00
26487;BME280;14425;56.136;40.360;2023-01-27T07:51:18;57093.69;;;-145.77;100.00
26487;BME280;14425;56.136;40.360;2023-01-27T07:53:43;57093.69;;;-145.77;100.00
26487;BME280;14425;56.136;40.360;2023-01-27T07:56:09;57093.69;;;-145.77;100.00
26487;BME280;14425;56.136;40.360;2023-01-27T07:58:40;57093.69;;;-145.77;100.00
26487;BME280;14425;56.136;40.360;2023-01-27T08:01:10;57093.69;;;-145.77;100.00
26487;BME280;14425;56.136;40.360;2023-01-27T08:03:36;57093.69;;;-145.77;100.00
26487;BME280;14425;56.136;40.360;2023-01-27T08:06:09;57093.69;;;-145.77;100.00
26487;BME280;14425;56.136;40.360;2023-01-27T08:08:36;57093.69;;;-145.77;100.00
26487;BME280;14425;56.136;40.360;2023-01-27T08:11:03;57093.69;;;-145.77;100.00
26487;BME280;14425;56.136;40.360;2023-01-27T08:13:29;57093.69;;;-145.77;100.00
26487;BME280;14425;56.136;40.360;2023-01-27T08:15:57;57093.69;;;-145.77;100.00
26487;BME280;14425;56.136;40.360;2023-01-27T08:18:22;57093.69;;;-145.77;100.00
26487;BME280;14425;56.136;40.360;2023-01-27T08:20:50;57093.69;;;-145.77;100.00
26487;BME280;14425;56.136;40.360;2023-01-27T08:23:17;57093.69;;;-145.77;100.00
26487;BME280;14425;56.136;40.360;2023-01-27T08:25:54;57093.69;;;-145.77;100.00
26487;BME280;14425;56.136;40.360;2023-01-27T08:28:20;57093.69;;;-145.77;100.00
26487;BME280;14425;56.136;40.360;2023-01-27T08:30:47;57093.69;;;-145.77;100.00
26487;BME280;14425;56.136;40.360;2023-01-27T08:33:12;57093.69;;;-145.77;100.00
26487;BME280;14425;56.136;40.360;2023-01-27T08:35:38;57093.69;;;-145.77;100.00
26487;BME280;14425;56.136;40.360;2023-01-27T08:38:07;57093.69;;;-145.77;100.00
26487;BME280;14425;56.136;40.360;2023-01-27T08:40:32;57093.69;;;-145.77;100.00
26487;BME280;14425;56.136;40.360;2023-01-27T08:42:58;57093.69;;;-145.77;100.00
26487;BME280;14425;56.136;40.360;2023-01-27T08:45:26;57093.69;;;-145.77;100.00
26487;BME280;14425;56.136;40.360;2023-01-27T08:47:52;57093.69;;;-145.77;100.00
26487;BME280;14425;56.136;40.360;2023-01-27T08:50:18;57093.69;;;-145.77;100.00
26487;BME280;14425;56.136;40.360;2023-01-27T08:52:43;57093.69;;;-145.77;100.00
26487;BME280;14425;56.136;40.360;2023-01-27T08:55:09;57093.69;;;-145.77;100.00
26487;BME280;14425;56.136;40.360;2023-01-27T08:57:34;57093.69;;;-145.77;100.00
26487;BME280;14425;56.136;40.360;2023-01-27T09:00:00;57093.69;;;-145.77;100.00
26487;BME280;14425;56.136;40.360;2023-01-27T09:02:26;57093.69;;;-145.77;100.00
26487;BME280;14425;56.136;40.360;2023-01-27T09:04:51;57093.69;;;-145.77;100.00
26487;BME280;14425;56.136;40.360;2023-01-27T09:07:17;57093.69;;;-145.77;100.00
26487;BME280;14425;56.136;40.360;2023-01-27T09:09:47;57093.69;;;-145.77;100.00
26487;BME280;14425;56.136;40.360;2023-01-27T09:12:13;57093.69;;;-145.77;100.00
26487;BME280;14425;56.136;40.360;2023-01-27T09:14:38;57093.69;;;-145.77;100.00
26487;BME280;14425;56.136;40.360;2023-01-27T09:17:04;57093.69;;;-145.77;100.00
26487;BME280;14425;56.136;40.360;2023-01-27T09:19:30;57093.69;;;-145.77;100.00
26487;BME280;14425;56.136;40.360;2023-01-27T09:21:55;57093.69;;;-145.77;100.00
26487;BME280;14425;56.136;40.360;2023-01-27T09:24:21;57093.69;;;-145.77;100.00
26487;BME280;14425;56.136;40.360;2023-01-27T09:26:46;57093.69;;;-145.77;100.00
26487;BME280;14425;56.136;40.360;2023-01-27T09:29:12;57093.69;;;-145.77;100.00
26487;BME280;14425;56.136;40.360;2023-01-27T09:31:38;57093.69;;;-145.77;100.00
26487;BME280;14425;56.136;40.360;2023-01-27T09:34:03;57093.69;;;-145.77;100.00
26487;BME280;14425;56.136;40.360;2023-01-27T09:36:29;57093.69;;;-145.77;100.00
26487;BME280;14425;56.136;40.360;2023-01-27T09:39:06;57093.69;;;-145.77;100.00
26487;BME280;14425;56.136;40.360;2023-01-27T09:55:20;57093.69;;;-145.77;100.00
26487;BME280;14425;56.136;40.360;2023-01-27T09:58:17;57093.69;;;-145.77;100.00
26487;BME280;14425;56.136;40.360;2023-01-27T10:01:54;57093.69;;;-145.77;100.00
26487;BME280;14425;56.136;40.360;2023-01-27T10:03:48;57093.69;;;-145.77;100.00
26487;BME280;14425;56.136;40.360;2023-01-27T10:14:53;57093.69;;;-145.77;100.00
26487;BME280;14425;56.136;40.360;2023-01-27T10:23:38;57093.69;;;-145.77;100.00
26487;BME280;14425;56.136;40.360;2023-01-27T10:28:23;57093.69;;;-145.77;100.00
26487;BME280;14425;56.136;40.360;2023-01-27T10:31:00;57093.69;;;-145.77;100.00
26487;BME280;14425;56.136;40.360;2023-01-27T10:33:47;57093.69;;;-145.77;100.00
26487;BME280;14425;56.136;40.360;2023-01-27T10:36:39;57093.69;;;-145.77;100.00
26487;BME280;14425;56.136;40.360;2023-01-27T10:41:50;57093.69;;;-145.77;100.00
26487;BME280;14425;56.136;40.360;2023-01-27T10:44:41;57093.69;;;-145.77;100.00
26487;BME280;14425;56.136;40.360;2023-01-27T10:50:08;57093.69;;;-145.77;100.00
26487;BME280;14425;56.136;40.360;2023-01-27T10:55:22;57093.69;;;-145.77;100.00
26487;BME280;14425;56.136;40.360;2023-01-27T11:00:46;57093.69;;;-145.77;100.00
26487;BME280;14425;56.136;40.360;2023-01-27T11:03:33;57093.69;;;-145.77;100.00
26487;BME280;14425;56.136;40.360;2023-01-27T11:06:06;57093.69;;;-145.77;100.00
26487;BME280;14425;56.136;40.360;2023-01-27T11:08:34;57093.69;;;-145.77;100.00
26487;BME280;14425;56.136;40.360;2023-01-27T11:11:04;57093.69;;;-145.77;100.00
26487;BME280;14425;56.136;40.360;2023-01-27T11:13:55;57093.69;;;-145.77;100.00
26487;BME280;14425;56.136;40.360;2023-01-27T11:16:30;57093.69;;;-145.77;100.00
26487;BME280;14425;56.136;40.360;2023-01-27T11:18:59;57093.69;;;-145.77;100.00
26487;BME280;14425;56.136;40.360;2023-01-27T11:21:30;57093.69;;;-145.77;100.00
26487;BME280;14425;56.136;40.360;2023-01-27T11:23:59;57093.69;;;-145.77;100.00
26487;BME280;14425;56.136;40.360;2023-01-27T11:26:40;57093.69;;;-145.77;100.00
26487;BME280;14425;56.136;40.360;2023-01-27T11:29:32;57093.69;;;-145.77;100.00
26487;BME280;14425;56.136;40.360;2023-01-27T11:35:08;57093.69;;;-145.77;100.00
26487;BME280;14425;56.136;40.360;2023-01-27T11:37:37;57093.69;;;-145.77;100.00
26487;BME280;14425;56.136;40.360;2023-01-27T11:40:12;57093.69;;;-145.77;100.00
26487;BME280;14425;56.136;40.360;2023-01-27T11:42:38;57093.69;;;-145.77;100.00
26487;BME280;14425;56.136;40.360;2023-01-27T11:45:04;57093.69;;;-145.77;100.00
26487;BME280;14425;56.136;40.360;2023-01-27T11:47:36;57093.69;;;-145.77;100.00
26487;BME280;14425;56.136;40.360;2023-01-27T11:50:03;57093.69;;;-145.77;100.00
26487;BME280;14425;56.136;40.360;2023-01-27T11:52:30;57093.69;;;-145.77;100.00
26487;BME280;14425;56.136;40.360;2023-01-27T11:55:04;57093.69;;;-145.77;100.00
26487;BME280;14425;56.136;40.360;2023-01-27T11:57:31;57093.69;;;-145.77;100.00
26487;BME280;14425;56.136;40.360;2023-01-27T12:00:00;57093.69;;;-145.77;100.00
26487;BME280;14425;56.136;40.360;2023-01-27T12:02:38;57093.69;;;-145.77;100.00
26487;BME280;14425;56.136;40.360;2023-01-27T12:05:13;57093.69;;;-145.77;100.00
26487;BME280;14425;56.136;40.360;2023-01-27T12:07:54;57093.69;;;-145.77;100.00
26487;BME280;14425;56.136;40.360;2023-01-27T12:12:47;57093.69;;;-145.77;100.00
26487;BME280;14425;56.136;40.360;2023-01-27T12:15:17;57093.69;;;-145.77;100.00
26487;BME280;14425;56.136;40.360;2023-01-27T12:17:49;57093.69;;;-145.77;100.00
26487;BME280;14425;56.136;40.360;2023-01-27T12:20:31;57093.69;;;-145.77;100.00
26487;BME280;14425;56.136;40.360;2023-01-27T12:23:02;57093.69;;;-145.77;100.00
26487;BME280;14425;56.136;40.360;2023-01-27T12:25:43;57093.69;;;-145.77;100.00
26487;BME280;14425;56.136;40.360;2023-01-27T12:36:45;99890.31;;;-1.10;100.00
26487;BME280;14425;56.136;40.360;2023-01-27T12:41:55;99884.19;;;-0.73;96.25
26487;BME280;14425;56.136;40.360;2023-01-27T12:44:21;99884.13;;;-1.43;99.94
26487;BME280;14425;56.136;40.360;2023-01-27T12:47:02;99877.47;;;-1.62;100.00
26487;BME280;14425;56.136;40.360;2023-01-27T12:49:36;99881.59;;;-0.94;99.82
26487;BME280;14425;56.136;40.360;2023-01-27T12:52:16;99883.97;;;-1.16;100.00
26487;BME280;14425;56.136;40.360;2023-01-27T12:54:42;99884.38;;;-0.90;98.54
26487;BME280;14425;56.136;40.360;2023-01-27T12:57:16;99881.25;;;-0.57;95.23
26487;BME280;14425;56.136;40.360;2023-01-27T13:00:03;99889.03;;;-1.05;96.71
26487;BME280;14425;56.136;40.360;2023-01-27T13:02:30;99883.88;;;-0.97;98.28
26487;BME280;14425;56.136;40.360;2023-01-27T13:05:03;99888.34;;;-0.63;95.07
26487;BME280;14425;56.136;40.360;2023-01-27T13:07:43;99900.69;;;-1.07;96.25
26487;BME280;14425;56.136;40.360;2023-01-27T13:10:23;99913.41;;;-1.56;100.00
26487;BME280;14425;56.136;40.360;2023-01-27T13:12:54;99897.19;;;-0.89;100.00
26487;BME280;14425;56.136;40.360;2023-01-27T13:15:21;99896.19;;;-0.60;96.20
26487;BME280;14425;56.136;40.360;2023-01-27T13:17:52;99900.66;;;-1.18;97.67
26487;BME280;14425;56.136;40.360;2023-01-27T13:20:38;99895.31;;;-1.31;100.00
26487;BME280;14425;56.136;40.360;2023-01-27T13:23:29;99892.66;;;-1.33;100.00
26487;BME280;14425;56.136;40.360;2023-01-27T13:26:21;99896.44;;;-0.78;99.74
26487;BME280;14425;56.136;40.360;2023-01-27T13:39:17;99897.97;;;-0.80;97.95
26487;BME280;14425;56.136;40.360;2023-01-27T13:44:38;99896.84;;;-0.63;98.01
26487;BME280;14425;56.136;40.360;2023-01-27T13:47:13;99900.13;;;-0.53;92.93
26487;BME280;14425;56.136;40.360;2023-01-27T13:49:44;99903.22;;;-1.07;95.83
26487;BME280;14425;56.136;40.360;2023-01-27T13:52:11;99904.97;;;-1.06;96.31
26487;BME280;14425;56.136;40.360;2023-01-27T13:54:37;99918.78;;;-0.53;95.14